createdAt,value
2018-04-27T00:00:46.703Z,6.40
2018-04-27T00:03:13.156Z,6.40
2018-04-27T00:05:40.619Z,6.40
2018-04-27T00:08:07.103Z,6.30
2018-04-27T00:10:33.623Z,6.30
2018-04-27T00:13:00.452Z,6.30
2018-04-27T00:15:27.021Z,6.20
2018-04-27T00:17:53.504Z,6.20
2018-04-27T00:20:20.605Z,6.20
2018-04-27T00:22:47.135Z,6.20
2018-04-27T00:25:13.592Z,6.10
2018-04-27T00:27:40.831Z,6.10
2018-04-27T00:30:07.275Z,6.10
2018-04-27T00:32:33.853Z,6.10
2018-04-27T00:35:00.636Z,6.00
2018-04-27T00:37:27.075Z,6.00
2018-04-27T00:39:55.060Z,5.90
2018-04-27T00:42:21.932Z,5.90
2018-04-27T00:44:48.425Z,6.00
2018-04-27T00:47:14.926Z,5.90
2018-04-27T00:49:42.284Z,5.90
2018-04-27T00:52:08.709Z,5.90
2018-04-27T00:54:35.253Z,5.90
2018-04-27T00:57:01.756Z,5.90
2018-04-27T00:59:28.222Z,5.90
2018-04-27T01:01:54.668Z,5.90
2018-04-27T01:04:21.267Z,5.80
2018-04-27T01:06:47.711Z,5.90
2018-04-27T01:09:14.192Z,5.90
2018-04-27T01:11:41.454Z,5.90
2018-04-27T01:14:07.906Z,5.80
2018-04-27T01:16:35.109Z,5.90
2018-04-27T01:19:02.407Z,5.80
2018-04-27T01:21:28.922Z,5.80
2018-04-27T01:23:55.448Z,5.80
2018-04-27T01:26:21.950Z,5.90
2018-04-27T01:28:48.430Z,5.80
2018-04-27T01:31:14.942Z,5.80
2018-04-27T01:33:41.968Z,5.80
2018-04-27T01:36:08.533Z,5.80
2018-04-27T01:38:35.056Z,5.80
2018-04-27T01:41:01.547Z,5.80
2018-04-27T01:43:27.985Z,5.80
2018-04-27T01:45:54.498Z,5.80
2018-04-27T01:48:21.704Z,5.80
2018-04-27T01:50:48.161Z,5.80
2018-04-27T01:53:14.673Z,5.90
2018-04-27T01:55:41.129Z,5.90
2018-04-27T01:58:07.663Z,5.90
2018-04-27T02:00:34.169Z,5.90
2018-04-27T02:03:01.070Z,5.90
2018-04-27T02:05:27.681Z,5.80
2018-04-27T02:07:54.137Z,5.80
2018-04-27T02:10:20.692Z,5.80
2018-04-27T02:12:47.931Z,5.80
2018-04-27T02:15:14.442Z,5.80
2018-04-27T02:17:41.133Z,5.80
2018-04-27T02:20:07.592Z,5.70
2018-04-27T02:22:34.892Z,5.70
2018-04-27T02:25:01.829Z,5.70
2018-04-27T02:27:29.070Z,5.60
2018-04-27T02:29:55.512Z,5.70
2018-04-27T02:32:22.029Z,5.60
2018-04-27T02:34:48.605Z,5.60
2018-04-27T02:37:15.795Z,5.60
2018-04-27T02:39:42.391Z,5.60
2018-04-27T02:42:08.962Z,5.60
2018-04-27T02:44:35.465Z,5.60
2018-04-27T02:47:01.949Z,5.60
2018-04-27T02:49:28.422Z,5.60
2018-04-27T02:51:54.911Z,5.60
2018-04-27T02:54:21.511Z,5.60
2018-04-27T02:56:48.857Z,5.60
2018-04-27T02:59:15.344Z,5.60
2018-04-27T03:01:41.840Z,5.60
2018-04-27T03:04:09.027Z,5.50
2018-04-27T03:06:35.530Z,5.60
2018-04-27T03:09:02.815Z,5.60
2018-04-27T03:11:29.245Z,5.50
2018-04-27T03:13:55.702Z,5.60
2018-04-27T03:16:22.331Z,5.60
2018-04-27T03:18:48.896Z,5.60
2018-04-27T03:21:15.371Z,5.60
2018-04-27T03:23:42.669Z,5.60
2018-04-27T03:26:09.036Z,5.60
2018-04-27T03:28:35.489Z,5.60
2018-04-27T03:31:02.697Z,5.60
2018-04-27T03:33:29.261Z,5.60
2018-04-27T03:35:55.997Z,5.60
2018-04-27T03:38:22.588Z,5.60
2018-04-27T03:40:49.039Z,5.70
2018-04-27T03:43:16.278Z,5.70
2018-04-27T03:45:42.761Z,5.70
2018-04-27T03:48:09.234Z,5.70
2018-04-27T03:50:35.745Z,5.70
2018-04-27T03:53:02.336Z,5.70
2018-04-27T03:55:28.803Z,5.70
2018-04-27T03:57:55.280Z,5.70
2018-04-27T04:00:34.032Z,5.70
2018-04-27T04:03:12.699Z,5.70
2018-04-27T04:05:39.328Z,5.70
2018-04-27T04:08:05.821Z,5.80
2018-04-27T04:10:32.272Z,5.80
2018-04-27T04:12:58.756Z,5.90
2018-04-27T04:15:25.221Z,5.90
2018-04-27T04:17:52.417Z,6.00
2018-04-27T04:20:19.207Z,6.00
2018-04-27T04:22:47.293Z,6.10
2018-04-27T04:25:13.785Z,6.00
2018-04-27T04:27:40.327Z,6.10
2018-04-27T04:30:06.857Z,6.20
2018-04-27T04:32:33.328Z,6.20
2018-04-27T04:35:00.743Z,6.30
2018-04-27T04:37:27.975Z,6.30
2018-04-27T04:39:55.293Z,6.40
2018-04-27T04:42:21.922Z,6.40
2018-04-27T04:44:48.392Z,6.50
2018-04-27T04:47:14.819Z,6.50
2018-04-27T04:49:41.401Z,6.50
2018-04-27T04:52:07.889Z,6.60
2018-04-27T04:54:34.384Z,6.70
2018-04-27T04:57:00.880Z,6.70
2018-04-27T04:59:27.346Z,6.70
2018-04-27T05:01:53.751Z,6.60
2018-04-27T05:04:20.402Z,6.60
2018-04-27T05:06:47.026Z,6.60
2018-04-27T05:09:13.717Z,6.70
2018-04-27T05:11:40.262Z,6.80
2018-04-27T05:14:06.730Z,6.80
2018-04-27T05:16:33.412Z,6.90
2018-04-27T05:19:08.280Z,6.80
2018-04-27T05:21:35.021Z,6.80
2018-04-27T05:24:02.276Z,7.00
2018-04-27T05:26:28.897Z,7.00
2018-04-27T05:28:55.387Z,7.00
2018-04-27T05:31:24.905Z,7.10
2018-04-27T05:33:51.497Z,7.10
2018-04-27T05:36:18.956Z,7.10
2018-04-27T05:38:45.617Z,7.10
2018-04-27T05:41:12.269Z,7.10
2018-04-27T05:43:39.628Z,7.10
2018-04-27T05:46:06.362Z,7.20
2018-04-27T05:48:33.347Z,7.30
2018-04-27T05:51:00.019Z,7.40
2018-04-27T05:53:27.451Z,7.50
2018-04-27T05:55:54.869Z,7.70
2018-04-27T05:58:21.436Z,7.70
2018-04-27T06:00:48.122Z,7.80
2018-04-27T06:03:15.772Z,8.00
2018-04-27T06:05:42.419Z,8.00
2018-04-27T06:08:08.931Z,8.10
2018-04-27T06:10:35.503Z,8.10
2018-04-27T06:13:02.720Z,8.70
2018-04-27T06:15:29.250Z,8.70
2018-04-27T06:17:55.888Z,8.90
2018-04-27T06:20:22.438Z,8.80
2018-04-27T06:22:49.015Z,8.80
2018-04-27T06:25:15.627Z,9.00
2018-04-27T06:27:42.965Z,9.20
2018-04-27T06:30:09.643Z,9.10
2018-04-27T06:32:36.732Z,9.40
2018-04-27T06:35:03.241Z,10.10
2018-04-27T06:37:31.141Z,11.50
2018-04-27T06:39:57.772Z,13.20
2018-04-27T06:42:24.324Z,14.30
2018-04-27T06:44:50.933Z,14.50
2018-04-27T06:47:17.503Z,13.80
2018-04-27T06:49:44.876Z,15.90
2018-04-27T06:52:11.381Z,15.90
2018-04-27T06:54:37.935Z,16.20
2018-04-27T06:57:04.490Z,16.00
2018-04-27T06:59:31.105Z,15.00
2018-04-27T07:01:57.952Z,14.00
2018-04-27T07:04:24.585Z,13.40
2018-04-27T07:06:51.914Z,14.80
2018-04-27T07:09:19.215Z,14.80
2018-04-27T07:11:45.769Z,15.60
2018-04-27T07:14:12.303Z,16.00
2018-04-27T07:16:40.876Z,16.10
2018-04-27T07:19:07.446Z,16.00
2018-04-27T07:21:33.942Z,15.90
2018-04-27T07:24:00.788Z,15.70
2018-04-27T07:26:27.440Z,15.50
2018-04-27T07:28:54.016Z,15.40
2018-04-27T07:31:20.567Z,15.60
2018-04-27T07:33:47.056Z,16.60
2018-04-27T07:36:13.554Z,15.60
2018-04-27T07:38:40.267Z,14.20
2018-04-27T07:41:06.858Z,14.00
2018-04-27T07:43:33.416Z,14.70
2018-04-27T07:46:00.112Z,14.00
2018-04-27T07:48:26.623Z,13.30
2018-04-27T07:50:53.138Z,13.10
2018-04-27T07:53:20.422Z,12.30
2018-04-27T07:55:46.955Z,12.30
2018-04-27T07:58:13.538Z,11.60
2018-04-27T08:00:40.354Z,11.10
2018-04-27T08:03:06.941Z,10.90
2018-04-27T08:05:33.493Z,10.60
2018-04-27T08:08:00.131Z,10.40
2018-04-27T08:10:26.762Z,10.30
2018-04-27T08:12:53.308Z,10.10
2018-04-27T08:15:19.884Z,10.10
2018-04-27T08:17:47.252Z,10.10
2018-04-27T08:20:16.552Z,10.10
2018-04-27T08:22:44.177Z,10.20
2018-04-27T08:25:11.407Z,10.20
2018-04-27T08:27:37.972Z,10.50
2018-04-27T08:30:04.855Z,10.90
2018-04-27T08:32:31.488Z,11.20
2018-04-27T08:34:58.055Z,11.20
2018-04-27T08:37:24.577Z,11.20
2018-04-27T08:39:51.037Z,11.10
2018-04-27T08:42:17.752Z,11.20
2018-04-27T08:44:44.838Z,11.00
2018-04-27T08:47:11.439Z,10.80
2018-04-27T08:49:37.947Z,10.50
2018-04-27T08:52:05.241Z,10.40
2018-04-27T08:54:31.779Z,10.50
2018-04-27T08:56:58.417Z,10.50
2018-04-27T08:59:26.426Z,10.60
2018-04-27T09:01:53.097Z,11.00
2018-04-27T09:04:19.766Z,11.70
2018-04-27T09:06:47.636Z,13.00
2018-04-27T09:09:14.234Z,13.80
2018-04-27T09:11:40.851Z,14.30
2018-04-27T09:14:07.404Z,14.20
2018-04-27T09:16:34.735Z,13.50
2018-04-27T09:19:01.292Z,13.40
2018-04-27T09:21:27.997Z,13.40
2018-04-27T09:23:54.593Z,13.10
2018-04-27T09:26:21.337Z,12.70
2018-04-27T09:28:48.035Z,13.00
2018-04-27T09:31:15.073Z,13.80
2018-04-27T09:33:42.081Z,14.70
2018-04-27T09:36:08.704Z,15.60
2018-04-27T09:38:35.171Z,14.50
2018-04-27T09:41:01.752Z,14.00
2018-04-27T09:43:28.817Z,14.20
2018-04-27T09:45:56.169Z,13.80
2018-04-27T09:48:22.835Z,13.80
2018-04-27T09:50:49.748Z,13.40
2018-04-27T09:53:17.027Z,13.90
2018-04-27T09:55:43.578Z,13.90
2018-04-27T09:58:10.115Z,14.20
2018-04-27T10:00:36.633Z,13.80
2018-04-27T10:03:03.973Z,12.90
2018-04-27T10:05:31.475Z,12.50
2018-04-27T10:07:58.076Z,12.50
2018-04-27T10:10:24.754Z,12.10
2018-04-27T10:12:51.389Z,10.90
2018-04-27T10:15:17.906Z,10.50
2018-04-27T10:17:44.601Z,10.10
2018-04-27T10:20:11.336Z,9.80
2018-04-27T10:22:37.892Z,9.40
2018-04-27T10:25:04.405Z,9.10
2018-04-27T10:27:31.074Z,9.10
2018-04-27T10:29:57.551Z,9.00
2018-04-27T10:32:24.814Z,9.30
2018-04-27T10:34:51.385Z,9.30
2018-04-27T10:37:17.887Z,9.50
2018-04-27T10:39:44.478Z,9.70
2018-04-27T10:42:12.022Z,10.30
2018-04-27T10:44:38.607Z,10.30
2018-04-27T10:47:05.341Z,10.50
2018-04-27T10:49:32.439Z,10.70
2018-04-27T10:51:59.172Z,11.00
2018-04-27T10:54:25.879Z,11.10
2018-04-27T10:56:52.527Z,11.50
2018-04-27T10:59:19.169Z,12.20
2018-04-27T11:01:45.729Z,12.60
2018-04-27T11:04:12.268Z,12.20
2018-04-27T11:06:39.084Z,11.60
2018-04-27T11:09:06.483Z,11.30
2018-04-27T11:11:34.026Z,11.10
2018-04-27T11:14:00.511Z,11.10
2018-04-27T11:16:27.505Z,11.10
2018-04-27T11:18:54.118Z,11.10
2018-04-27T11:21:20.688Z,11.10
2018-04-27T11:23:48.317Z,11.10
2018-04-27T11:26:15.320Z,11.60
2018-04-27T11:28:41.896Z,12.20
2018-04-27T11:31:08.440Z,12.70
2018-04-27T11:33:35.026Z,13.00
2018-04-27T11:36:01.524Z,12.90
2018-04-27T11:38:28.022Z,12.50
2018-04-27T11:40:54.558Z,12.20
2018-04-27T11:43:21.087Z,11.80
2018-04-27T11:45:47.732Z,11.70
2018-04-27T11:48:14.552Z,11.90
2018-04-27T11:50:41.274Z,13.00
2018-04-27T11:53:08.022Z,13.30
2018-04-27T11:55:34.732Z,12.90
2018-04-27T11:58:01.287Z,12.80
2018-04-27T12:00:27.949Z,12.50
2018-04-27T12:02:54.683Z,12.60
2018-04-27T12:05:21.232Z,13.20
2018-04-27T12:07:48.404Z,13.90
2018-04-27T12:10:14.983Z,14.00
2018-04-27T12:12:41.568Z,13.60
2018-04-27T12:15:08.249Z,13.30
2018-04-27T12:17:35.309Z,12.80
2018-04-27T12:20:01.690Z,12.70
2018-04-27T12:22:28.268Z,12.90
2018-04-27T12:24:54.995Z,13.60
2018-04-27T12:27:21.506Z,14.00
2018-04-27T12:29:48.142Z,13.40
2018-04-27T12:32:14.830Z,14.00
2018-04-27T12:34:41.287Z,14.80
2018-04-27T12:37:07.834Z,15.40
2018-04-27T12:39:34.697Z,16.00
2018-04-27T12:42:01.646Z,16.70
2018-04-27T12:44:28.315Z,17.00
2018-04-27T12:46:55.749Z,17.30
2018-04-27T12:49:22.303Z,17.50
2018-04-27T12:51:49.924Z,17.70
2018-04-27T12:54:16.590Z,17.10
2018-04-27T12:56:43.229Z,16.90
2018-04-27T12:59:09.751Z,15.70
2018-04-27T13:01:36.296Z,15.50
2018-04-27T13:04:02.751Z,14.90
2018-04-27T13:06:29.342Z,14.10
2018-04-27T13:08:56.204Z,13.50
2018-04-27T13:11:22.858Z,13.20
2018-04-27T13:13:49.522Z,13.00
2018-04-27T13:16:17.227Z,12.40
2018-04-27T13:18:43.765Z,11.70
2018-04-27T13:21:11.212Z,11.30
2018-04-27T13:23:38.710Z,10.90
2018-04-27T13:26:05.168Z,10.50
2018-04-27T13:28:33.542Z,10.20
2018-04-27T13:31:00.323Z,10.20
2018-04-27T13:33:27.806Z,10.70
2018-04-27T13:35:54.848Z,11.10
2018-04-27T13:38:21.422Z,11.30
2018-04-27T13:40:48.032Z,11.20
2018-04-27T13:43:14.488Z,11.80
2018-04-27T13:45:48.143Z,12.60
2018-04-27T13:48:14.850Z,12.90
2018-04-27T13:50:41.486Z,12.90
2018-04-27T13:53:08.086Z,13.00
2018-04-27T13:55:37.121Z,13.50
2018-04-27T13:58:03.610Z,13.80
2018-04-27T14:00:30.250Z,14.00
2018-04-27T14:02:56.879Z,14.10
2018-04-27T14:05:25.605Z,14.30
2018-04-27T14:07:52.277Z,14.30
2018-04-27T14:10:18.897Z,13.70
2018-04-27T14:12:46.337Z,13.10
2018-04-27T14:15:12.949Z,13.00
2018-04-27T14:17:39.566Z,12.70
2018-04-27T14:20:06.374Z,12.50
2018-04-27T14:22:32.840Z,12.50
2018-04-27T14:25:00.020Z,13.20
2018-04-27T14:27:26.494Z,13.20
2018-04-27T14:29:53.037Z,13.50
2018-04-27T14:32:19.611Z,13.80
2018-04-27T14:34:46.080Z,14.10
2018-04-27T14:37:12.579Z,14.40
2018-04-27T14:39:39.184Z,14.50
2018-04-27T14:42:05.809Z,14.60
2018-04-27T14:44:32.453Z,14.70
2018-04-27T14:46:59.008Z,14.90
2018-04-27T14:49:25.505Z,14.80
2018-04-27T14:51:52.861Z,14.50
2018-04-27T14:54:19.316Z,13.80
2018-04-27T14:56:45.885Z,13.20
2018-04-27T14:59:12.569Z,12.90
2018-04-27T15:01:39.201Z,12.80
2018-04-27T15:04:05.610Z,12.60
2018-04-27T15:06:32.321Z,12.80
2018-04-27T15:08:58.889Z,13.40
2018-04-27T15:11:25.572Z,13.80
2018-04-27T15:13:52.152Z,13.80
2018-04-27T15:16:19.563Z,14.10
2018-04-27T15:18:46.034Z,14.10
2018-04-27T15:21:12.643Z,14.20
2018-04-27T15:23:39.899Z,14.10
2018-04-27T15:26:06.508Z,14.10
2018-04-27T15:28:34.459Z,14.20
2018-04-27T15:31:00.981Z,14.10
2018-04-27T15:33:28.313Z,14.00
2018-04-27T15:35:55.066Z,14.00
2018-04-27T15:38:23.032Z,13.90
2018-04-27T15:40:49.590Z,13.40
2018-04-27T15:43:17.606Z,12.70
2018-04-27T15:45:44.092Z,12.60
2018-04-27T15:48:11.475Z,12.50
2018-04-27T15:50:38.836Z,12.70
2018-04-27T15:53:05.382Z,12.70
2018-04-27T15:55:32.153Z,12.90
2018-04-27T15:57:58.816Z,13.10
2018-04-27T16:00:25.399Z,13.00
2018-04-27T16:02:51.938Z,12.90
2018-04-27T16:05:19.765Z,12.90
2018-04-27T16:07:46.326Z,12.90
2018-04-27T16:10:12.903Z,12.80
2018-04-27T16:12:39.639Z,12.70
2018-04-27T16:15:06.128Z,12.70
2018-04-27T16:17:32.736Z,12.50
2018-04-27T16:19:59.461Z,12.30
2018-04-27T16:22:27.184Z,12.10
2018-04-27T16:24:53.701Z,12.20
2018-04-27T16:27:20.457Z,12.00
2018-04-27T16:29:46.996Z,11.70
2018-04-27T16:32:13.633Z,11.50
2018-04-27T16:34:40.565Z,11.60
2018-04-27T16:37:07.116Z,11.60
2018-04-27T16:39:33.794Z,11.80
2018-04-27T16:42:01.729Z,11.70
2018-04-27T16:44:28.073Z,11.70
2018-04-27T16:46:54.639Z,11.60
2018-04-27T16:49:21.257Z,11.70
2018-04-27T16:51:47.807Z,11.60
2018-04-27T16:54:15.135Z,11.50
2018-04-27T16:56:41.764Z,11.50
2018-04-27T16:59:08.516Z,11.50
2018-04-27T17:01:35.012Z,11.40
2018-04-27T17:04:02.362Z,11.30
2018-04-27T17:06:28.890Z,11.30
2018-04-27T17:08:55.369Z,11.20
2018-04-27T17:11:21.873Z,11.20
2018-04-27T17:13:49.188Z,11.00
2018-04-27T17:16:15.782Z,11.10
2018-04-27T17:18:42.682Z,11.00
2018-04-27T17:21:09.247Z,10.90
2018-04-27T17:23:36.584Z,10.70
2018-04-27T17:26:03.337Z,10.70
2018-04-27T17:28:30.027Z,10.60
2018-04-27T17:30:56.624Z,10.50
2018-04-27T17:33:23.865Z,10.40
2018-04-27T17:35:51.073Z,10.40
2018-04-27T17:38:17.615Z,10.40
2018-04-27T17:40:45.533Z,10.30
2018-04-27T17:43:12.845Z,10.20
2018-04-27T17:45:40.030Z,10.20
2018-04-27T17:48:07.482Z,10.20
2018-04-27T17:50:34.025Z,10.10
2018-04-27T17:53:01.450Z,10.10
2018-04-27T17:55:27.968Z,10.10
2018-04-27T17:57:54.477Z,9.70
2018-04-27T18:00:21.108Z,9.00
2018-04-27T18:02:48.019Z,8.50
2018-04-27T18:05:15.272Z,8.10
2018-04-27T18:07:42.846Z,8.00
2018-04-27T18:10:09.783Z,7.90
2018-04-27T18:12:36.282Z,7.80
2018-04-27T18:15:02.873Z,7.70
2018-04-27T18:17:29.514Z,7.70
2018-04-27T18:19:56.126Z,7.70
2018-04-27T18:22:22.612Z,7.70
2018-04-27T18:24:49.225Z,7.70
2018-04-27T18:27:15.691Z,7.60
2018-04-27T18:29:43.060Z,7.60
2018-04-27T18:32:09.573Z,7.60
2018-04-27T18:34:36.173Z,7.60
2018-04-27T18:37:02.715Z,7.70
2018-04-27T18:39:30.348Z,7.70
2018-04-27T18:41:56.872Z,7.80
2018-04-27T18:44:23.421Z,7.80
2018-04-27T18:46:51.231Z,7.70
2018-04-27T18:49:17.819Z,7.70
2018-04-27T18:51:44.362Z,7.70
2018-04-27T18:54:11.085Z,7.70
2018-04-27T18:56:37.639Z,7.70
2018-04-27T18:59:04.286Z,7.70
2018-04-27T19:01:30.928Z,7.70
2018-04-27T19:03:58.296Z,7.60
2018-04-27T19:06:24.784Z,7.50
2018-04-27T19:08:51.764Z,7.70
2018-04-27T19:11:19.133Z,7.80
2018-04-27T19:13:46.433Z,7.60
2018-04-27T19:16:13.090Z,7.60
2018-04-27T19:18:39.626Z,7.50
2018-04-27T19:21:06.165Z,7.40
2018-04-27T19:23:36.405Z,7.50
2018-04-27T19:26:03.614Z,7.50
2018-04-27T19:28:30.280Z,7.40
2018-04-27T19:30:56.926Z,7.50
2018-04-27T19:33:23.517Z,7.50
2018-04-27T19:35:50.115Z,7.50
2018-04-27T19:38:17.544Z,7.40
2018-04-27T19:40:44.179Z,7.40
2018-04-27T19:43:10.724Z,7.60
2018-04-27T19:45:37.826Z,7.60
2018-04-27T19:48:04.507Z,7.60
2018-04-27T19:50:31.071Z,7.50
2018-04-27T19:52:57.645Z,7.50
2018-04-27T19:55:24.197Z,7.60
2018-04-27T19:57:50.748Z,7.40
2018-04-27T20:00:17.352Z,7.60
2018-04-27T20:02:43.909Z,7.60
2018-04-27T20:05:12.353Z,7.50
2018-04-27T20:07:39.724Z,7.40
2018-04-27T20:10:06.275Z,7.30
2018-04-27T20:12:32.833Z,7.30
2018-04-27T20:14:59.421Z,7.20
2018-04-27T20:17:36.595Z,7.10
2018-04-27T20:20:04.995Z,7.20
2018-04-27T20:22:33.076Z,7.20
2018-04-27T20:25:00.727Z,7.20
2018-04-27T20:27:28.774Z,7.20
2018-04-27T20:29:55.234Z,7.20
2018-04-27T20:32:23.092Z,7.20
2018-04-27T20:34:51.564Z,7.10
2018-04-27T20:37:18.827Z,7.10
2018-04-27T20:39:45.569Z,7.10
2018-04-27T20:42:12.435Z,7.00
2018-04-27T20:44:39.050Z,6.90
2018-04-27T20:47:05.681Z,6.90
2018-04-27T20:49:32.513Z,6.90
2018-04-27T20:51:59.097Z,7.00
2018-04-27T20:54:25.704Z,7.00
2018-04-27T20:56:52.973Z,7.00
2018-04-27T20:59:20.559Z,7.00
2018-04-27T21:01:47.115Z,7.00
2018-04-27T21:04:14.128Z,7.00
2018-04-27T21:06:40.731Z,7.00
2018-04-27T21:09:08.132Z,7.00
2018-04-27T21:11:35.695Z,6.90
2018-04-27T21:14:02.349Z,6.90
2018-04-27T21:16:28.877Z,6.90
2018-04-27T21:18:55.468Z,6.80
2018-04-27T21:21:22.062Z,6.80
2018-04-27T21:23:48.614Z,6.90
2018-04-27T21:26:25.836Z,6.90
2018-04-27T21:28:52.461Z,6.90
2018-04-27T21:31:21.018Z,6.70
2018-04-27T21:33:47.720Z,6.80
2018-04-27T21:36:14.332Z,6.80
2018-04-27T21:38:44.509Z,6.80
2018-04-27T21:41:21.120Z,6.80
2018-04-27T21:43:51.554Z,6.80
2018-04-27T21:46:23.591Z,6.80
2018-04-27T21:48:50.277Z,6.80
2018-04-27T21:51:25.571Z,6.70
2018-04-27T21:53:53.547Z,6.60
2018-04-27T21:56:20.988Z,6.60
2018-04-27T21:58:47.518Z,6.60
2018-04-27T22:01:14.523Z,6.60
2018-04-27T22:03:41.609Z,6.60
2018-04-27T22:06:18.155Z,6.60
2018-04-27T22:08:44.729Z,6.70
2018-04-27T22:14:27.734Z,6.70
2018-04-27T22:17:02.209Z,6.60
2018-04-27T22:19:29.842Z,6.70
2018-04-27T22:21:56.515Z,6.70
2018-04-27T22:24:25.863Z,6.60
2018-04-27T22:26:53.345Z,6.60
2018-04-27T22:29:22.798Z,6.60
2018-04-27T22:31:49.562Z,6.60
2018-04-27T22:34:16.109Z,6.60
2018-04-27T22:36:43.607Z,6.50
2018-04-27T22:39:21.336Z,6.50
2018-04-27T22:44:49.216Z,6.40
2018-04-27T22:47:17.654Z,6.40
2018-04-27T22:49:44.423Z,6.40
2018-04-27T22:52:11.772Z,6.40
2018-04-27T22:54:49.237Z,6.30
2018-04-27T22:57:30.760Z,6.40
2018-04-27T22:59:58.089Z,6.30
2018-04-27T23:02:24.637Z,6.30
2018-04-27T23:04:55.552Z,6.30
2018-04-27T23:07:24.959Z,6.30
2018-04-27T23:09:56.403Z,6.30
2018-04-27T23:12:23.795Z,6.30
2018-04-27T23:14:50.292Z,6.20
2018-04-27T23:17:17.171Z,6.20
2018-04-27T23:19:59.458Z,6.20
2018-04-27T23:22:34.964Z,6.20
2018-04-27T23:25:15.154Z,6.30
2018-04-27T23:27:41.766Z,6.20
2018-04-27T23:30:08.326Z,6.20
2018-04-27T23:32:35.983Z,6.20
2018-04-27T23:35:03.692Z,6.20
2018-04-27T23:37:30.174Z,6.20
2018-04-27T23:39:58.460Z,6.20
2018-04-27T23:42:26.121Z,6.30
2018-04-27T23:44:52.580Z,6.20
2018-04-27T23:47:19.200Z,6.20
2018-04-27T23:49:47.347Z,6.20
2018-04-27T23:52:13.855Z,6.20
2018-04-27T23:54:40.424Z,6.30
2018-04-27T23:57:06.996Z,6.20
2018-04-27T23:59:50.294Z,6.20
